Flag for Greece

Past Weather in 35°22'22.6"N, 24°28'44.1"E, Greece — Yesterday and Last 2 Weeks

Currently: 45 °F. Passing clouds. (Weather station: Souda Airport, Greece). See more current weather

Past Weather in 35°22'22.6"N, 24°28'44.1"E — Graph

°F

35°22'22.6"N, 24°28'44.1"E Temperature Yesterday

Maximum temperature yesterday: 61 °F (at 1:20 pm)
Minimum temperature yesterday: 48 °F (at 10:50 pm)
Average temperature yesterday: 54 °F

High & Low Weather Summary for the Past Weeks

 TemperatureHumidityPressure
High66 °F (Jan 17, 12:50 pm)100% (Jan 15, 6:50 pm)30.21 "Hg (Jan 15, 6:50 pm)
Low45 °F (Jan 14, 7:20 am)51% (Jan 27, 1:20 pm)29.68 "Hg (Jan 27, 12:20 pm)
Average55 °F79%29.98 "Hg
* Reported Jan 14 4:20 am — Jan 29 4:20 am, 35°22'22.6"N, 24°28'44.1"E. Weather by CustomWeather, © 2023

Note: Actual official high and low records may vary slightly from our data, if they occured in-between our weather recording intervals... More about our weather records

35°22'22.6"N, 24°28'44.1"E Weather History for the Previous 24 Hours

Scroll right to see more
 ConditionsComfort  
Time TempWeatherWind HumidityBarometerVisibility
4:20 am
Sun, Jan 29
46 °FPassing clouds.No wind87%29.92 "HgN/A
3:50 am46 °FPassing clouds.No wind87%29.92 "HgN/A
3:20 am48 °FPassing clouds.No wind82%29.95 "HgN/A
2:50 am48 °FPassing clouds.No wind82%29.95 "HgN/A
1:20 am48 °FPassing clouds.3 mph94%29.95 "HgN/A
12:50 am48 °FPassing clouds.No wind94%29.95 "HgN/A
12:20 am48 °FPassing clouds.6 mph94%29.95 "HgN/A
11:50 pm
Sat, Jan 28
48 °FPassing clouds.6 mph94%29.95 "HgN/A
11:20 pm48 °FPassing clouds.3 mph94%29.92 "HgN/A
10:50 pm48 °FPassing clouds.3 mph94%29.92 "HgN/A
10:20 pm50 °FPassing clouds.3 mph88%29.92 "HgN/A
9:50 pm54 °FPassing clouds.3 mph88%29.95 "HgN/A
9:20 pm54 °FPassing clouds.7 mph88%29.95 "HgN/A
8:50 pm54 °FPassing clouds.5 mph88%29.95 "HgN/A
8:20 pm54 °FPassing clouds.5 mph88%29.95 "HgN/A
7:50 pm54 °FPassing clouds.6 mph88%29.92 "HgN/A
7:20 pm54 °FPassing clouds.7 mph88%29.92 "HgN/A
6:50 pm54 °FThunderstorms. Passing clouds.8 mph88%29.92 "Hg5 mi
6:20 pm54 °FThunderstorms. Passing clouds.23 mph88%29.92 "Hg5 mi
5:50 pm57 °FPassing clouds.9 mph72%29.89 "HgN/A
5:20 pm59 °FScattered clouds.12 mph68%29.89 "HgN/A
4:50 pm59 °FScattered clouds.12 mph68%29.89 "HgN/A
4:20 pm59 °FScattered clouds.13 mph68%29.86 "HgN/A
3:50 pm59 °FScattered clouds.13 mph68%29.86 "HgN/A
3:20 pm59 °FScattered clouds.14 mph68%29.86 "HgN/A
2:50 pm59 °FScattered clouds.17 mph68%29.86 "HgN/A
2:20 pm59 °FScattered clouds.17 mph68%29.86 "HgN/A
1:50 pm59 °FScattered clouds.18 mph68%29.86 "HgN/A
1:20 pm61 °FScattered clouds.20 mph63%29.86 "HgN/A
12:50 pm59 °FScattered clouds.17 mph72%29.86 "HgN/A
12:20 pm59 °FScattered clouds.18 mph68%29.86 "HgN/A
11:50 am59 °FScattered clouds.17 mph68%29.86 "HgN/A
11:20 am57 °FScattered clouds.21 mph72%29.86 "HgN/A
10:50 am57 °FScattered clouds.15 mph77%29.86 "HgN/A
10:20 am57 °FScattered clouds.22 mph72%29.86 "HgN/A
9:50 am57 °FScattered clouds.17 mph67%29.83 "HgN/A
9:20 am55 °FScattered clouds.13 mph77%29.83 "HgN/A
8:50 am54 °FScattered clouds.12 mph77%29.83 "HgN/A
8:20 am54 °FScattered clouds.12 mph77%29.80 "HgN/A
7:50 am52 °FScattered clouds.10 mph82%29.80 "HgN/A
7:20 am52 °FPassing clouds.12 mph82%29.80 "HgN/A
6:50 am52 °FPassing clouds.14 mph82%29.77 "HgN/A
6:20 am52 °FPassing clouds.10 mph82%29.77 "HgN/A
5:50 am52 °FPassing clouds.12 mph82%29.77 "HgN/A
5:20 am50 °FPassing clouds.8 mph88%29.77 "HgN/A
Weather by CustomWeather, © 2023

See weather overview